createdAt,value
2023-03-11T00:00:22.481Z,2.22
2023-03-11T00:02:51.300Z,1.77
2023-03-11T00:05:27.029Z,1.40
2023-03-11T00:07:54.388Z,1.63
2023-03-11T00:10:42.077Z,1.60
2023-03-11T00:13:10.918Z,1.80
2023-03-11T00:15:38.818Z,1.80
2023-03-11T00:18:06.081Z,1.70
2023-03-11T00:20:35.612Z,1.55
2023-03-11T00:23:02.896Z,1.30
2023-03-11T00:25:31.275Z,1.10
2023-03-11T00:27:58.910Z,1.00
2023-03-11T00:30:25.916Z,1.42
2023-03-11T00:32:54.670Z,1.35
2023-03-11T00:35:23.786Z,1.30
2023-03-11T00:37:54.269Z,1.27
2023-03-11T00:40:21.484Z,1.00
2023-03-11T00:42:48.220Z,1.05
2023-03-11T00:45:15.427Z,1.10
2023-03-11T00:47:42.576Z,1.75
2023-03-11T00:50:15.629Z,1.38
2023-03-11T00:52:42.327Z,1.17
2023-03-11T00:55:10.706Z,0.90
2023-03-11T00:57:37.384Z,0.90
2023-03-11T01:00:04.763Z,0.90
2023-03-11T01:02:31.586Z,1.10
2023-03-11T01:04:58.330Z,0.88
2023-03-11T01:07:25.063Z,1.20
2023-03-11T01:09:51.811Z,0.85
2023-03-11T01:12:18.648Z,1.00
2023-03-11T01:14:45.266Z,1.38
2023-03-11T01:17:12.004Z,1.20
2023-03-11T01:19:38.714Z,1.50
2023-03-11T01:22:05.596Z,0.98
2023-03-11T01:24:34.464Z,1.02
2023-03-11T01:27:01.296Z,1.30
2023-03-11T01:29:28.070Z,1.50
2023-03-11T01:31:56.276Z,0.90
2023-03-11T01:34:23.013Z,1.02
2023-03-11T01:36:49.678Z,0.88
2023-03-11T01:39:16.409Z,0.80
2023-03-11T01:41:43.165Z,1.50
2023-03-11T01:44:13.400Z,1.17
2023-03-11T01:47:02.022Z,1.58
2023-03-11T01:49:32.421Z,1.95
2023-03-11T01:52:07.652Z,1.10
2023-03-11T01:54:40.090Z,1.00
2023-03-11T01:57:10.302Z,0.90
2023-03-11T01:59:40.527Z,1.23
2023-03-11T02:02:10.299Z,1.10
2023-03-11T02:04:37.655Z,1.23
2023-03-11T02:07:04.924Z,1.30
2023-03-11T02:09:31.672Z,1.13
2023-03-11T02:11:58.550Z,1.15
2023-03-11T02:14:26.042Z,1.08
2023-03-11T02:16:53.704Z,1.20
2023-03-11T02:19:27.298Z,1.30
2023-03-11T02:21:54.357Z,0.70
2023-03-11T02:24:33.580Z,1.08
2023-03-11T02:27:00.834Z,0.85
2023-03-11T02:29:29.859Z,1.40
2023-03-11T02:31:58.759Z,1.00
2023-03-11T02:34:29.244Z,1.38
2023-03-11T02:36:56.498Z,1.13
2023-03-11T02:39:30.563Z,0.80
2023-03-11T02:41:58.676Z,1.00
2023-03-11T02:44:25.392Z,1.58
2023-03-11T02:46:52.776Z,1.58
2023-03-11T02:49:20.562Z,1.10
2023-03-11T02:51:47.292Z,1.38
2023-03-11T02:54:14.001Z,0.70
2023-03-11T02:56:41.604Z,1.20
2023-03-11T02:59:08.276Z,0.77
2023-03-11T03:01:35.098Z,1.02
2023-03-11T03:04:02.032Z,1.27
2023-03-11T03:06:31.927Z,1.00
2023-03-11T03:08:58.589Z,1.00
2023-03-11T03:11:25.299Z,1.50
2023-03-11T03:13:51.961Z,1.90
2023-03-11T03:16:18.880Z,1.40
2023-03-11T03:18:45.566Z,1.55
2023-03-11T03:21:12.244Z,0.80
2023-03-11T03:23:38.994Z,1.05
2023-03-11T03:26:06.304Z,1.10
2023-03-11T03:28:36.924Z,1.17
2023-03-11T03:31:05.953Z,1.35
2023-03-11T03:33:32.809Z,1.15
2023-03-11T03:36:00.376Z,1.23
2023-03-11T03:38:30.858Z,1.85
2023-03-11T03:40:57.601Z,1.20
2023-03-11T03:43:24.519Z,1.48
2023-03-11T03:45:58.227Z,2.25
2023-03-11T03:48:27.301Z,1.30
2023-03-11T03:50:54.251Z,2.05
2023-03-11T03:53:21.340Z,1.20
2023-03-11T03:55:48.199Z,0.82
2023-03-11T03:58:15.262Z,1.20
2023-03-11T04:00:43.069Z,1.15
2023-03-11T04:03:09.811Z,0.95
2023-03-11T04:05:49.549Z,1.27
2023-03-11T04:08:16.353Z,1.13
2023-03-11T04:10:43.661Z,1.20
2023-03-11T04:13:10.498Z,1.35
2023-03-11T04:15:40.345Z,1.25
2023-03-11T04:18:07.358Z,1.60
2023-03-11T04:20:34.299Z,1.67
2023-03-11T04:23:01.226Z,1.17
2023-03-11T04:25:27.991Z,1.00
2023-03-11T04:27:54.760Z,1.10
2023-03-11T04:30:22.357Z,1.10
2023-03-11T04:32:53.611Z,1.40
2023-03-11T04:35:20.593Z,1.05
2023-03-11T04:37:47.515Z,1.80
2023-03-11T04:40:15.017Z,1.40
2023-03-11T04:42:41.802Z,1.27
2023-03-11T04:45:10.871Z,1.27
2023-03-11T04:47:37.858Z,1.73
2023-03-11T04:50:05.860Z,1.42
2023-03-11T04:52:32.721Z,1.67
2023-03-11T04:54:59.577Z,1.38
2023-03-11T04:57:26.418Z,1.20
2023-03-11T04:59:53.115Z,1.23
2023-03-11T05:02:19.884Z,1.17
2023-03-11T05:04:53.563Z,1.92
2023-03-11T05:07:20.419Z,1.58
2023-03-11T05:09:47.745Z,1.55
2023-03-11T05:12:14.545Z,1.20
2023-03-11T05:14:45.126Z,1.50
2023-03-11T05:17:13.604Z,2.47
2023-03-11T05:19:41.927Z,1.38
2023-03-11T05:22:15.986Z,1.65
2023-03-11T05:24:43.193Z,1.38
2023-03-11T05:27:09.930Z,1.65
2023-03-11T05:29:38.584Z,1.88
2023-03-11T05:32:07.557Z,1.20
2023-03-11T05:34:34.419Z,1.20
2023-03-11T05:37:03.215Z,1.30
2023-03-11T05:39:30.555Z,1.63
2023-03-11T05:41:57.421Z,2.55
2023-03-11T05:44:25.344Z,2.13
2023-03-11T05:46:52.737Z,1.45
2023-03-11T05:49:21.554Z,1.60
2023-03-11T05:51:50.759Z,1.42
2023-03-11T05:54:18.038Z,1.45
2023-03-11T05:56:47.607Z,1.40
2023-03-11T05:59:16.707Z,1.45
2023-03-11T06:01:45.872Z,2.10
2023-03-11T06:04:13.209Z,1.75
2023-03-11T06:06:43.747Z,1.55
2023-03-11T06:09:13.291Z,1.90
2023-03-11T06:11:40.627Z,1.60
2023-03-11T06:14:07.314Z,1.90
2023-03-11T06:16:34.127Z,1.42
2023-03-11T06:19:03.352Z,1.27
2023-03-11T06:21:34.298Z,1.25
2023-03-11T06:24:01.348Z,1.50
2023-03-11T06:26:29.574Z,1.83
2023-03-11T06:28:56.347Z,2.20
2023-03-11T06:31:25.446Z,1.50
2023-03-11T06:33:55.851Z,1.40
2023-03-11T06:36:22.993Z,1.58
2023-03-11T06:38:54.637Z,1.38
2023-03-11T06:41:23.755Z,1.60
2023-03-11T06:43:50.663Z,1.17
2023-03-11T06:46:21.958Z,1.98
2023-03-11T06:48:53.380Z,2.28
2023-03-11T06:51:22.133Z,2.10
2023-03-11T06:53:51.712Z,2.17
2023-03-11T06:56:21.142Z,2.60
2023-03-11T06:58:53.594Z,2.30
2023-03-11T07:01:23.065Z,3.50
2023-03-11T07:03:51.146Z,2.80
2023-03-11T07:06:20.476Z,2.70
2023-03-11T07:08:48.630Z,3.15
2023-03-11T07:11:19.081Z,3.00
2023-03-11T07:13:47.272Z,2.50
2023-03-11T07:16:16.898Z,1.45
2023-03-11T07:18:44.967Z,1.75
2023-03-11T07:21:14.324Z,1.67
2023-03-11T07:23:41.038Z,2.22
2023-03-11T07:26:12.410Z,1.92
2023-03-11T07:28:39.839Z,2.45
2023-03-11T07:31:14.636Z,3.20
2023-03-11T07:33:41.468Z,2.35
2023-03-11T07:36:16.470Z,2.13
2023-03-11T07:38:43.611Z,2.60
2023-03-11T07:41:11.602Z,1.77
2023-03-11T07:43:39.285Z,1.50
2023-03-11T07:46:12.339Z,1.88
2023-03-11T07:48:40.012Z,1.80
2023-03-11T07:51:23.942Z,1.70
2023-03-11T07:53:52.548Z,1.75
2023-03-11T07:56:19.845Z,1.88
2023-03-11T07:58:46.911Z,1.42
2023-03-11T08:01:22.819Z,1.50
2023-03-11T08:03:51.073Z,1.90
2023-03-11T08:06:22.474Z,3.25
2023-03-11T08:08:49.594Z,1.50
2023-03-11T08:11:16.790Z,2.95
2023-03-11T08:13:44.541Z,1.52
2023-03-11T08:16:14.329Z,1.55
2023-03-11T08:18:41.220Z,1.70
2023-03-11T08:21:09.822Z,1.85
2023-03-11T08:23:36.626Z,2.17
2023-03-11T08:26:10.149Z,2.50
2023-03-11T08:28:37.297Z,2.03
2023-03-11T08:31:12.464Z,1.38
2023-03-11T08:33:39.206Z,1.50
2023-03-11T08:36:06.523Z,1.50
2023-03-11T08:38:33.522Z,2.20
2023-03-11T08:41:00.830Z,2.42
2023-03-11T08:43:28.148Z,2.55
2023-03-11T08:45:55.018Z,1.73
2023-03-11T08:48:23.507Z,1.65
2023-03-11T08:50:54.192Z,1.70
2023-03-11T08:53:22.614Z,1.98
2023-03-11T08:55:50.314Z,1.92
2023-03-11T08:58:17.056Z,2.10
2023-03-11T09:00:43.801Z,1.65
2023-03-11T09:03:10.688Z,2.10
2023-03-11T09:05:37.487Z,2.13
2023-03-11T09:08:05.740Z,2.22
2023-03-11T09:10:32.612Z,2.20
2023-03-11T09:12:59.315Z,2.42
2023-03-11T09:15:26.002Z,2.08
2023-03-11T09:17:53.013Z,2.20
2023-03-11T09:20:19.969Z,2.10
2023-03-11T09:22:46.918Z,1.90
2023-03-11T09:25:14.530Z,1.52
2023-03-11T09:27:41.471Z,1.95
2023-03-11T09:30:09.437Z,1.70
2023-03-11T09:32:37.308Z,1.80
2023-03-11T09:35:04.594Z,1.90
2023-03-11T09:37:31.351Z,1.55
2023-03-11T09:39:58.048Z,1.88
2023-03-11T09:42:48.645Z,1.50
2023-03-11T09:45:18.507Z,1.65
2023-03-11T09:48:18.303Z,1.98
2023-03-11T09:50:44.839Z,1.67
2023-03-11T09:53:40.745Z,1.77
2023-03-11T09:56:09.971Z,1.83
2023-03-11T09:58:42.105Z,1.80
2023-03-11T10:01:24.097Z,1.67
2023-03-11T10:03:54.383Z,1.42
2023-03-11T10:06:26.416Z,2.33
2023-03-11T10:09:12.284Z,1.30
2023-03-11T10:12:09.681Z,1.75
2023-03-11T10:14:53.094Z,1.40
2023-03-11T10:20:08.511Z,2.05
2023-03-11T10:23:07.719Z,1.20
2023-03-11T10:25:49.495Z,1.40
2023-03-11T10:28:18.537Z,1.13
2023-03-11T10:30:48.166Z,1.00
2023-03-11T10:33:37.872Z,1.42
2023-03-11T10:36:07.244Z,1.67
2023-03-11T10:38:37.850Z,1.30
2023-03-11T10:41:07.531Z,1.42
2023-03-11T10:43:45.827Z,1.20
2023-03-11T10:46:21.110Z,0.95
2023-03-11T10:48:47.787Z,1.45
2023-03-11T10:51:22.395Z,1.10
2023-03-11T10:53:58.899Z,1.27
2023-03-11T10:56:32.958Z,1.13
2023-03-11T10:59:00.552Z,1.02
2023-03-11T11:01:29.021Z,1.48
2023-03-11T11:03:57.593Z,1.00
2023-03-11T11:06:32.700Z,1.63
2023-03-11T11:09:21.989Z,1.27
2023-03-11T11:12:01.044Z,1.80
2023-03-11T11:14:42.335Z,1.33
2023-03-11T11:17:30.847Z,1.10
2023-03-11T11:19:58.227Z,2.42
2023-03-11T11:22:25.622Z,0.95
2023-03-11T11:24:54.689Z,1.10
2023-03-11T11:27:26.339Z,1.90
2023-03-11T11:30:12.327Z,1.52
2023-03-11T11:32:39.076Z,1.20
2023-03-11T11:35:10.935Z,1.25
2023-03-11T11:37:41.412Z,0.90
2023-03-11T11:40:14.245Z,0.90
2023-03-11T11:42:46.049Z,1.20
2023-03-11T11:45:21.822Z,1.25
2023-03-11T11:47:51.054Z,0.95
2023-03-11T11:50:27.877Z,1.30
2023-03-11T11:53:04.638Z,1.15
2023-03-11T11:55:31.881Z,1.40
2023-03-11T11:57:58.680Z,1.00
2023-03-11T12:00:34.103Z,1.02
2023-03-11T12:03:10.250Z,1.50
2023-03-11T12:05:45.239Z,1.13
2023-03-11T12:08:14.525Z,0.90
2023-03-11T12:11:03.480Z,1.38
2023-03-11T12:14:00.242Z,1.55
2023-03-11T12:16:35.338Z,1.50
2023-03-11T12:19:10.945Z,1.50
2023-03-11T12:21:55.632Z,1.58
2023-03-11T12:24:40.090Z,1.20
2023-03-11T12:27:19.781Z,1.73
2023-03-11T12:29:50.173Z,1.40
2023-03-11T12:32:23.760Z,1.52
2023-03-11T12:34:50.654Z,1.40
2023-03-11T12:37:19.759Z,12.50
2023-03-11T12:39:46.482Z,4.53
2023-03-11T12:42:13.096Z,1.70
2023-03-11T12:44:40.953Z,1.98
2023-03-11T12:47:07.488Z,1.77
2023-03-11T12:49:39.025Z,1.77
2023-03-11T12:52:11.632Z,1.25
2023-03-11T12:54:49.829Z,1.20
2023-03-11T12:57:16.683Z,1.45
2023-03-11T13:00:23.205Z,1.63
2023-03-11T13:03:08.387Z,1.35
2023-03-11T13:06:11.942Z,1.23
2023-03-11T13:08:47.511Z,1.38
2023-03-11T13:11:26.256Z,1.40
2023-03-11T13:13:52.972Z,1.15
2023-03-11T13:16:19.622Z,2.00
2023-03-11T13:18:47.786Z,1.48
2023-03-11T13:21:32.721Z,1.30
2023-03-11T13:24:27.126Z,1.58
2023-03-11T13:27:00.474Z,1.25
2023-03-11T13:29:55.686Z,1.30
2023-03-11T13:32:25.438Z,1.25
2023-03-11T13:35:00.868Z,1.20
2023-03-11T13:37:52.785Z,0.95
2023-03-11T13:40:33.456Z,1.10
2023-03-11T13:43:08.190Z,1.20
2023-03-11T13:45:36.900Z,2.33
2023-03-11T13:48:08.156Z,1.40
2023-03-11T13:50:37.308Z,1.00
2023-03-11T13:53:08.662Z,1.35
2023-03-11T13:55:37.471Z,1.08
2023-03-11T13:58:17.290Z,0.93
2023-03-11T14:00:51.217Z,1.05
2023-03-11T14:03:22.043Z,1.15
2023-03-11T14:05:50.850Z,1.30
2023-03-11T14:08:35.257Z,1.23
2023-03-11T14:11:03.167Z,1.38
2023-03-11T14:13:40.724Z,1.05
2023-03-11T14:16:35.723Z,1.10
2023-03-11T14:19:12.270Z,1.63
2023-03-11T14:21:44.899Z,1.20
2023-03-11T14:24:20.372Z,1.35
2023-03-11T14:26:50.049Z,1.75
2023-03-11T14:29:19.149Z,1.65
2023-03-11T14:31:47.112Z,1.48
2023-03-11T14:34:19.666Z,1.20
2023-03-11T14:37:10.216Z,1.40
2023-03-11T14:39:39.154Z,1.23
2023-03-11T14:42:26.735Z,1.25
2023-03-11T14:45:05.333Z,1.58
2023-03-11T14:47:48.180Z,1.05
2023-03-11T14:50:20.405Z,0.90
2023-03-11T14:53:02.455Z,1.37
2023-03-11T14:55:35.051Z,1.23
2023-03-11T14:58:07.457Z,1.30
2023-03-11T15:00:37.207Z,1.73
2023-03-11T15:03:12.820Z,1.20
2023-03-11T15:05:52.298Z,1.40
2023-03-11T15:08:21.362Z,1.35
2023-03-11T15:11:11.260Z,1.50
2023-03-11T15:13:39.996Z,1.88
2023-03-11T15:16:34.008Z,1.70
2023-03-11T15:19:02.245Z,1.40
2023-03-11T15:21:29.996Z,1.75
2023-03-11T15:24:00.747Z,1.60
2023-03-11T15:26:32.628Z,1.60
2023-03-11T15:29:06.963Z,1.75
2023-03-11T15:31:36.900Z,1.50
2023-03-11T15:34:23.277Z,1.73
2023-03-11T15:37:19.477Z,1.35
2023-03-11T15:39:47.951Z,1.38
2023-03-11T15:42:19.442Z,1.48
2023-03-11T15:44:52.663Z,1.23
2023-03-11T15:49:50.020Z,2.30
2023-03-11T15:52:19.304Z,2.17
2023-03-11T15:54:55.193Z,1.60
2023-03-11T15:57:25.482Z,1.48
2023-03-11T15:59:53.908Z,1.70
2023-03-11T16:02:26.183Z,1.83
2023-03-11T16:04:53.420Z,1.53
2023-03-11T16:07:36.489Z,1.92
2023-03-11T16:10:06.937Z,1.35
2023-03-11T16:12:33.598Z,1.13
2023-03-11T16:15:00.427Z,1.73
2023-03-11T16:17:31.856Z,1.65
2023-03-11T16:20:06.833Z,1.40
2023-03-11T16:22:36.108Z,1.85
2023-03-11T16:25:03.226Z,1.70
2023-03-11T16:27:30.359Z,1.83
2023-03-11T16:29:57.157Z,1.45
2023-03-11T16:32:23.926Z,1.30
2023-03-11T16:34:50.794Z,1.10
2023-03-11T16:37:21.393Z,1.25
2023-03-11T16:39:50.980Z,1.40
2023-03-11T16:42:26.956Z,1.30
2023-03-11T16:44:53.836Z,1.15
2023-03-11T16:47:20.656Z,1.15
2023-03-11T16:49:50.436Z,1.40
2023-03-11T16:52:20.803Z,1.30
2023-03-11T16:54:47.836Z,1.40
2023-03-11T16:57:14.623Z,1.48
2023-03-11T16:59:41.280Z,1.40
2023-03-11T17:02:10.837Z,1.75
2023-03-11T17:04:38.499Z,1.05
2023-03-11T17:07:06.317Z,1.15
2023-03-11T17:09:34.070Z,2.35
2023-03-11T17:12:01.471Z,1.95
2023-03-11T17:14:28.725Z,1.38
2023-03-11T17:16:55.417Z,1.40
2023-03-11T17:19:23.945Z,1.63
2023-03-11T17:21:51.186Z,1.50
2023-03-11T17:24:17.944Z,1.75
2023-03-11T17:26:44.602Z,1.88
2023-03-11T17:29:11.289Z,1.25
2023-03-11T17:31:39.357Z,1.35
2023-03-11T17:34:06.040Z,2.17
2023-03-11T17:36:32.782Z,1.40
2023-03-11T17:38:59.564Z,1.60
2023-03-11T17:41:26.352Z,1.35
2023-03-11T17:43:53.058Z,1.20
2023-03-11T17:46:22.520Z,1.48
2023-03-11T17:48:50.084Z,1.33
2023-03-11T17:51:20.034Z,1.50
2023-03-11T17:53:47.254Z,1.05
2023-03-11T17:56:15.969Z,1.45
2023-03-11T17:58:42.787Z,1.20
2023-03-11T18:01:15.235Z,1.98
2023-03-11T18:03:42.458Z,1.38
2023-03-11T18:06:09.788Z,1.35
2023-03-11T18:08:36.971Z,1.45
2023-03-11T18:11:09.244Z,1.40
2023-03-11T18:13:36.527Z,1.23
2023-03-11T18:16:07.259Z,1.10
2023-03-11T18:18:35.346Z,1.50
2023-03-11T18:21:11.665Z,1.63
2023-03-11T18:23:38.828Z,2.25
2023-03-11T18:26:07.898Z,1.77
2023-03-11T18:28:36.171Z,2.13
2023-03-11T18:31:18.054Z,2.72
2023-03-11T18:33:49.955Z,3.13
2023-03-11T18:36:18.949Z,3.10
2023-03-11T18:38:46.088Z,3.33
2023-03-11T18:41:12.798Z,3.13
2023-03-11T18:43:39.522Z,3.28
2023-03-11T18:46:11.053Z,3.10
2023-03-11T18:48:38.163Z,3.15
2023-03-11T18:51:05.732Z,3.42
2023-03-11T18:53:32.745Z,3.45
2023-03-11T18:56:08.030Z,3.40
2023-03-11T18:58:34.694Z,3.60
2023-03-11T19:01:06.112Z,4.70
2023-03-11T19:03:32.854Z,4.30
2023-03-11T19:05:59.631Z,3.83
2023-03-11T19:08:26.923Z,4.22
2023-03-11T19:10:54.081Z,3.70
2023-03-11T19:13:21.023Z,5.22
2023-03-11T19:15:47.778Z,4.95
2023-03-11T19:18:15.031Z,3.90
2023-03-11T19:20:42.103Z,4.00
2023-03-11T19:23:09.191Z,4.75
2023-03-11T19:25:36.000Z,4.53
2023-03-11T19:28:02.818Z,5.63
2023-03-11T19:30:29.702Z,4.82
2023-03-11T19:32:56.554Z,4.70
2023-03-11T19:35:24.081Z,4.55
2023-03-11T19:37:56.739Z,3.63
2023-03-11T19:42:50.602Z,4.10
2023-03-11T19:45:17.345Z,4.63
2023-03-11T19:47:46.535Z,4.68
2023-03-11T19:50:13.313Z,4.47
2023-03-11T19:52:40.199Z,4.47
2023-03-11T19:55:07.472Z,4.95
2023-03-11T19:57:34.298Z,5.97
2023-03-11T20:00:00.990Z,6.55
2023-03-11T20:02:27.956Z,6.25
2023-03-11T20:04:54.922Z,4.45
2023-03-11T20:07:21.965Z,4.25
2023-03-11T20:09:49.006Z,4.88
2023-03-11T20:12:15.818Z,3.80
2023-03-11T20:14:42.758Z,4.28
2023-03-11T20:17:09.538Z,4.97
2023-03-11T20:19:36.443Z,4.35
2023-03-11T20:22:03.433Z,4.85
2023-03-11T20:24:30.394Z,4.30
2023-03-11T20:26:57.080Z,4.03
2023-03-11T20:29:23.894Z,3.75
2023-03-11T20:31:51.011Z,3.90
2023-03-11T20:34:17.730Z,3.53
2023-03-11T20:36:44.743Z,4.80
2023-03-11T20:39:11.683Z,4.97
2023-03-11T20:41:40.222Z,4.22
2023-03-11T20:44:08.363Z,4.30
2023-03-11T20:46:35.432Z,4.80
2023-03-11T20:49:02.967Z,4.85
2023-03-11T20:51:30.024Z,6.50
2023-03-11T20:53:56.715Z,5.85
2023-03-11T20:56:25.468Z,5.97
2023-03-11T20:58:53.424Z,5.32
2023-03-11T21:01:26.609Z,5.80
2023-03-11T21:03:54.957Z,5.18
2023-03-11T21:06:24.064Z,5.65
2023-03-11T21:08:53.237Z,4.97
2023-03-11T21:11:20.071Z,4.65
2023-03-11T21:13:46.844Z,5.20
2023-03-11T21:16:14.115Z,5.30
2023-03-11T21:18:43.113Z,5.63
2023-03-11T21:21:11.751Z,5.60
2023-03-11T21:23:39.990Z,5.22
2023-03-11T21:26:07.843Z,5.82
2023-03-11T21:28:37.831Z,6.15
2023-03-11T21:31:12.885Z,5.90
2023-03-11T21:33:41.077Z,6.90
2023-03-11T21:36:09.290Z,5.95
2023-03-11T21:38:36.580Z,6.20
2023-03-11T21:41:17.196Z,6.20
2023-03-11T21:43:44.698Z,5.82
2023-03-11T21:46:14.635Z,5.90
2023-03-11T21:48:41.687Z,6.00
2023-03-11T21:51:08.446Z,6.43
2023-03-11T21:53:35.392Z,7.22
2023-03-11T21:56:03.716Z,6.82
2023-03-11T21:58:31.051Z,6.75
2023-03-11T22:00:57.820Z,7.93
2023-03-11T22:03:24.699Z,7.05
2023-03-11T22:06:02.314Z,7.78
2023-03-11T22:08:29.110Z,7.15
2023-03-11T22:10:56.065Z,6.38
2023-03-11T22:13:23.651Z,7.22
2023-03-11T22:15:51.023Z,6.90
2023-03-11T22:18:17.919Z,6.80
2023-03-11T22:20:44.859Z,6.82
2023-03-11T22:23:11.882Z,6.68
2023-03-11T22:25:38.640Z,6.03
2023-03-11T22:28:05.276Z,5.93
2023-03-11T22:30:32.102Z,5.38
2023-03-11T22:32:59.023Z,6.35
2023-03-11T22:35:25.742Z,5.90
2023-03-11T22:37:52.362Z,4.93
2023-03-11T22:40:19.101Z,5.18
2023-03-11T22:42:45.938Z,4.55
2023-03-11T22:45:12.664Z,4.90
2023-03-11T22:47:39.312Z,4.43
2023-03-11T22:50:06.171Z,5.65
2023-03-11T22:52:32.824Z,4.75
2023-03-11T22:54:59.541Z,5.60
2023-03-11T22:57:26.232Z,5.93
2023-03-11T22:59:52.914Z,6.25
2023-03-11T23:02:19.592Z,6.63
2023-03-11T23:04:46.309Z,7.10
2023-03-11T23:07:13.002Z,6.75
2023-03-11T23:09:39.850Z,7.20
2023-03-11T23:12:06.938Z,6.60
2023-03-11T23:14:44.528Z,6.70
2023-03-11T23:17:12.255Z,6.53
2023-03-11T23:19:39.062Z,6.18
2023-03-11T23:22:06.897Z,6.22
2023-03-11T23:24:34.039Z,6.28
2023-03-11T23:27:04.519Z,6.50
2023-03-11T23:29:31.793Z,6.15
2023-03-11T23:31:58.466Z,6.57
2023-03-11T23:34:25.169Z,6.35
2023-03-11T23:36:51.832Z,7.35
2023-03-11T23:39:18.561Z,7.05
2023-03-11T23:41:45.261Z,5.65
2023-03-11T23:44:12.136Z,6.45
2023-03-11T23:46:38.900Z,6.05
2023-03-11T23:49:05.610Z,6.82
2023-03-11T23:51:32.262Z,6.35
2023-03-11T23:53:58.891Z,6.90
2023-03-11T23:56:25.593Z,6.50
2023-03-11T23:58:52.270Z,6.95
